sensor_id;sensor_type;location;lat;lon;timestamp;temperature;humidity
37938;DHT22;23763;48.130;11.602;2023-07-29T00:01:05;17.60;99.90
37938;DHT22;23763;48.130;11.602;2023-07-29T00:03:31;17.60;99.90
37938;DHT22;23763;48.130;11.602;2023-07-29T00:05:57;17.60;99.90
37938;DHT22;23763;48.130;11.602;2023-07-29T00:08:23;17.60;99.90
37938;DHT22;23763;48.130;11.602;2023-07-29T00:10:49;17.70;99.90
37938;DHT22;23763;48.130;11.602;2023-07-29T00:13:14;17.60;99.90
37938;DHT22;23763;48.130;11.602;2023-07-29T00:15:40;17.60;99.90
37938;DHT22;23763;48.130;11.602;2023-07-29T00:18:05;17.60;99.90
37938;DHT22;23763;48.130;11.602;2023-07-29T00:20:31;17.50;99.90
37938;DHT22;23763;48.130;11.602;2023-07-29T00:22:56;17.50;99.90
37938;DHT22;23763;48.130;11.602;2023-07-29T00:25:23;17.50;99.90
37938;DHT22;23763;48.130;11.602;2023-07-29T00:27:49;17.40;99.90
37938;DHT22;23763;48.130;11.602;2023-07-29T00:30:15;17.40;99.90
37938;DHT22;23763;48.130;11.602;2023-07-29T00:32:40;17.40;99.90
37938;DHT22;23763;48.130;11.602;2023-07-29T00:35:06;17.40;99.90
37938;DHT22;23763;48.130;11.602;2023-07-29T00:37:32;17.30;99.90
37938;DHT22;23763;48.130;11.602;2023-07-29T00:39:58;17.30;99.90
37938;DHT22;23763;48.130;11.602;2023-07-29T00:42:24;17.30;99.90
37938;DHT22;23763;48.130;11.602;2023-07-29T00:44:49;17.40;99.90
37938;DHT22;23763;48.130;11.602;2023-07-29T00:47:16;17.40;99.90
37938;DHT22;23763;48.130;11.602;2023-07-29T00:49:43;17.40;99.90
37938;DHT22;23763;48.130;11.602;2023-07-29T00:52:09;17.40;99.90
37938;DHT22;23763;48.130;11.602;2023-07-29T00:54:40;17.50;99.90
37938;DHT22;23763;48.130;11.602;2023-07-29T00:57:08;17.40;99.90
37938;DHT22;23763;48.130;11.602;2023-07-29T00:59:35;17.50;99.90
37938;DHT22;23763;48.130;11.602;2023-07-29T01:02:02;17.50;99.90
37938;DHT22;23763;48.130;11.602;2023-07-29T01:04:27;17.50;99.90
37938;DHT22;23763;48.130;11.602;2023-07-29T01:10:02;17.40;99.90
37938;DHT22;23763;48.130;11.602;2023-07-29T01:18:23;17.50;99.90
37938;DHT22;23763;48.130;11.602;2023-07-29T01:20:53;17.50;99.90
37938;DHT22;23763;48.130;11.602;2023-07-29T01:23:33;17.50;99.90
37938;DHT22;23763;48.130;11.602;2023-07-29T01:25:59;17.40;99.90
37938;DHT22;23763;48.130;11.602;2023-07-29T01:28:25;17.40;99.90
37938;DHT22;23763;48.130;11.602;2023-07-29T01:30:52;17.30;99.90
37938;DHT22;23763;48.130;11.602;2023-07-29T01:33:35;17.30;99.90
37938;DHT22;23763;48.130;11.602;2023-07-29T01:36:11;17.30;99.90
37938;DHT22;23763;48.130;11.602;2023-07-29T01:38:40;17.20;99.90
37938;DHT22;23763;48.130;11.602;2023-07-29T01:41:08;17.20;99.90
37938;DHT22;23763;48.130;11.602;2023-07-29T01:43:34;17.20;99.90
37938;DHT22;23763;48.130;11.602;2023-07-29T01:46:07;17.20;99.90
37938;DHT22;23763;48.130;11.602;2023-07-29T01:48:32;17.20;99.90
37938;DHT22;23763;48.130;11.602;2023-07-29T01:50:58;17.20;99.90
37938;DHT22;23763;48.130;11.602;2023-07-29T01:53:24;17.20;99.90
37938;DHT22;23763;48.130;11.602;2023-07-29T01:55:49;17.10;99.90
37938;DHT22;23763;48.130;11.602;2023-07-29T01:58:15;17.20;99.90
37938;DHT22;23763;48.130;11.602;2023-07-29T02:00:40;17.30;99.90
37938;DHT22;23763;48.130;11.602;2023-07-29T02:03:06;17.30;99.90
37938;DHT22;23763;48.130;11.602;2023-07-29T02:05:31;17.30;99.90
37938;DHT22;23763;48.130;11.602;2023-07-29T02:07:57;17.30;99.90
37938;DHT22;23763;48.130;11.602;2023-07-29T02:10:23;17.30;99.90
37938;DHT22;23763;48.130;11.602;2023-07-29T02:12:48;17.30;99.90
37938;DHT22;23763;48.130;11.602;2023-07-29T02:15:14;17.30;99.90
37938;DHT22;23763;48.130;11.602;2023-07-29T02:17:42;17.30;99.90
37938;DHT22;23763;48.130;11.602;2023-07-29T02:20:08;17.20;99.90
37938;DHT22;23763;48.130;11.602;2023-07-29T02:22:36;17.20;99.90
37938;DHT22;23763;48.130;11.602;2023-07-29T02:25:01;17.20;99.90
37938;DHT22;23763;48.130;11.602;2023-07-29T02:27:28;17.20;99.90
37938;DHT22;23763;48.130;11.602;2023-07-29T02:29:53;17.20;99.90
37938;DHT22;23763;48.130;11.602;2023-07-29T02:32:20;17.20;99.90
37938;DHT22;23763;48.130;11.602;2023-07-29T02:34:45;17.20;99.90
37938;DHT22;23763;48.130;11.602;2023-07-29T02:37:11;17.10;99.90
37938;DHT22;23763;48.130;11.602;2023-07-29T02:39:37;17.10;99.90
37938;DHT22;23763;48.130;11.602;2023-07-29T02:42:03;17.10;99.90
37938;DHT22;23763;48.130;11.602;2023-07-29T02:44:29;17.10;99.90
37938;DHT22;23763;48.130;11.602;2023-07-29T02:46:54;17.00;99.90
37938;DHT22;23763;48.130;11.602;2023-07-29T02:49:21;17.00;99.90
37938;DHT22;23763;48.130;11.602;2023-07-29T02:51:47;17.00;99.90
37938;DHT22;23763;48.130;11.602;2023-07-29T02:54:13;17.00;99.90
37938;DHT22;23763;48.130;11.602;2023-07-29T02:56:38;17.00;99.90
37938;DHT22;23763;48.130;11.602;2023-07-29T02:59:04;16.90;99.90
37938;DHT22;23763;48.130;11.602;2023-07-29T03:01:30;16.90;99.90
37938;DHT22;23763;48.130;11.602;2023-07-29T03:03:56;16.90;99.90
37938;DHT22;23763;48.130;11.602;2023-07-29T03:06:21;16.90;99.90
37938;DHT22;23763;48.130;11.602;2023-07-29T03:08:47;16.90;99.90
37938;DHT22;23763;48.130;11.602;2023-07-29T03:11:14;16.90;99.90
37938;DHT22;23763;48.130;11.602;2023-07-29T03:13:40;16.80;99.90
37938;DHT22;23763;48.130;11.602;2023-07-29T03:16:10;16.80;99.90
37938;DHT22;23763;48.130;11.602;2023-07-29T03:18:36;16.80;99.90
37938;DHT22;23763;48.130;11.602;2023-07-29T03:21:03;16.80;99.90
37938;DHT22;23763;48.130;11.602;2023-07-29T03:23:29;16.90;99.90
37938;DHT22;23763;48.130;11.602;2023-07-29T03:25:56;16.80;99.90
37938;DHT22;23763;48.130;11.602;2023-07-29T03:28:28;16.80;99.90
37938;DHT22;23763;48.130;11.602;2023-07-29T03:30:54;16.80;99.90
37938;DHT22;23763;48.130;11.602;2023-07-29T03:33:20;16.80;99.90
37938;DHT22;23763;48.130;11.602;2023-07-29T03:35:45;16.80;99.90
37938;DHT22;23763;48.130;11.602;2023-07-29T03:38:12;16.80;99.90
37938;DHT22;23763;48.130;11.602;2023-07-29T03:40:38;16.80;99.90
37938;DHT22;23763;48.130;11.602;2023-07-29T03:43:04;16.80;99.90
37938;DHT22;23763;48.130;11.602;2023-07-29T03:45:29;16.80;99.90
37938;DHT22;23763;48.130;11.602;2023-07-29T03:47:55;16.80;99.90
37938;DHT22;23763;48.130;11.602;2023-07-29T03:50:21;16.80;99.90
37938;DHT22;23763;48.130;11.602;2023-07-29T03:52:46;16.90;99.90
37938;DHT22;23763;48.130;11.602;2023-07-29T03:55:12;16.90;99.90
37938;DHT22;23763;48.130;11.602;2023-07-29T03:57:37;16.90;99.90
37938;DHT22;23763;48.130;11.602;2023-07-29T04:00:04;17.00;99.90
37938;DHT22;23763;48.130;11.602;2023-07-29T04:02:30;17.00;99.90
37938;DHT22;23763;48.130;11.602;2023-07-29T04:04:55;17.10;99.90
37938;DHT22;23763;48.130;11.602;2023-07-29T04:07:21;17.10;99.90
37938;DHT22;23763;48.130;11.602;2023-07-29T04:09:46;17.00;99.90
37938;DHT22;23763;48.130;11.602;2023-07-29T04:12:12;17.20;99.90
37938;DHT22;23763;48.130;11.602;2023-07-29T04:14:38;17.20;99.90
37938;DHT22;23763;48.130;11.602;2023-07-29T04:17:04;17.30;99.90
37938;DHT22;23763;48.130;11.602;2023-07-29T04:19:29;17.30;99.90
37938;DHT22;23763;48.130;11.602;2023-07-29T04:21:55;17.30;99.90
37938;DHT22;23763;48.130;11.602;2023-07-29T04:24:20;17.50;99.90
37938;DHT22;23763;48.130;11.602;2023-07-29T04:26:48;17.40;99.90
37938;DHT22;23763;48.130;11.602;2023-07-29T04:29:14;17.30;99.90
37938;DHT22;23763;48.130;11.602;2023-07-29T04:31:40;17.40;99.90
37938;DHT22;23763;48.130;11.602;2023-07-29T04:34:05;17.30;99.90
37938;DHT22;23763;48.130;11.602;2023-07-29T04:36:31;17.30;99.90
37938;DHT22;23763;48.130;11.602;2023-07-29T04:38:57;17.30;99.90
37938;DHT22;23763;48.130;11.602;2023-07-29T04:41:22;17.20;99.90
37938;DHT22;23763;48.130;11.602;2023-07-29T04:43:48;17.20;99.90
37938;DHT22;23763;48.130;11.602;2023-07-29T04:46:15;17.20;99.90
37938;DHT22;23763;48.130;11.602;2023-07-29T04:48:40;17.30;99.90
37938;DHT22;23763;48.130;11.602;2023-07-29T04:51:06;17.30;99.90
37938;DHT22;23763;48.130;11.602;2023-07-29T04:53:31;17.30;99.90
37938;DHT22;23763;48.130;11.602;2023-07-29T04:55:57;17.30;99.90
37938;DHT22;23763;48.130;11.602;2023-07-29T04:58:23;17.40;99.90
37938;DHT22;23763;48.130;11.602;2023-07-29T05:00:48;17.50;99.90
37938;DHT22;23763;48.130;11.602;2023-07-29T05:03:14;17.70;99.90
37938;DHT22;23763;48.130;11.602;2023-07-29T05:05:39;18.00;99.90
37938;DHT22;23763;48.130;11.602;2023-07-29T05:08:05;18.10;99.90
37938;DHT22;23763;48.130;11.602;2023-07-29T05:10:30;18.30;99.90
37938;DHT22;23763;48.130;11.602;2023-07-29T05:12:56;18.50;99.90
37938;DHT22;23763;48.130;11.602;2023-07-29T05:15:21;18.70;99.90
37938;DHT22;23763;48.130;11.602;2023-07-29T05:17:47;19.00;99.90
37938;DHT22;23763;48.130;11.602;2023-07-29T05:20:12;19.10;99.90
37938;DHT22;23763;48.130;11.602;2023-07-29T05:22:38;19.20;99.90
37938;DHT22;23763;48.130;11.602;2023-07-29T05:25:04;19.40;99.90
37938;DHT22;23763;48.130;11.602;2023-07-29T05:27:30;19.50;99.90
37938;DHT22;23763;48.130;11.602;2023-07-29T05:29:55;19.60;99.90
37938;DHT22;23763;48.130;11.602;2023-07-29T05:32:21;19.70;99.90
37938;DHT22;23763;48.130;11.602;2023-07-29T05:34:46;19.60;99.90
37938;DHT22;23763;48.130;11.602;2023-07-29T05:37:12;19.50;99.90
37938;DHT22;23763;48.130;11.602;2023-07-29T05:39:38;19.50;99.90
37938;DHT22;23763;48.130;11.602;2023-07-29T05:42:03;19.40;99.90
37938;DHT22;23763;48.130;11.602;2023-07-29T05:44:29;19.50;99.90
37938;DHT22;23763;48.130;11.602;2023-07-29T05:46:56;19.50;99.90
37938;DHT22;23763;48.130;11.602;2023-07-29T05:49:22;19.50;99.90
37938;DHT22;23763;48.130;11.602;2023-07-29T05:51:47;19.60;99.90
37938;DHT22;23763;48.130;11.602;2023-07-29T05:54:13;19.60;99.90
37938;DHT22;23763;48.130;11.602;2023-07-29T05:56:39;19.70;99.90
37938;DHT22;23763;48.130;11.602;2023-07-29T05:59:04;19.70;99.90
37938;DHT22;23763;48.130;11.602;2023-07-29T06:01:30;19.60;99.90
37938;DHT22;23763;48.130;11.602;2023-07-29T06:03:55;19.50;99.90
37938;DHT22;23763;48.130;11.602;2023-07-29T06:06:21;19.50;99.90
37938;DHT22;23763;48.130;11.602;2023-07-29T06:08:49;19.50;99.90
37938;DHT22;23763;48.130;11.602;2023-07-29T06:11:15;19.40;99.90
37938;DHT22;23763;48.130;11.602;2023-07-29T06:13:40;18.50;99.90
37938;DHT22;23763;48.130;11.602;2023-07-29T06:16:06;17.90;99.90
37938;DHT22;23763;48.130;11.602;2023-07-29T06:18:31;17.50;99.90
37938;DHT22;23763;48.130;11.602;2023-07-29T06:20:57;17.20;99.90
37938;DHT22;23763;48.130;11.602;2023-07-29T06:23:23;17.00;99.90
37938;DHT22;23763;48.130;11.602;2023-07-29T06:25:48;17.10;99.90
37938;DHT22;23763;48.130;11.602;2023-07-29T06:28:14;17.00;99.90
37938;DHT22;23763;48.130;11.602;2023-07-29T06:30:39;17.20;99.90
37938;DHT22;23763;48.130;11.602;2023-07-29T06:33:06;17.20;99.90
37938;DHT22;23763;48.130;11.602;2023-07-29T06:35:31;17.30;99.90
37938;DHT22;23763;48.130;11.602;2023-07-29T06:37:57;17.40;99.90
37938;DHT22;23763;48.130;11.602;2023-07-29T06:40:23;17.60;99.90
37938;DHT22;23763;48.130;11.602;2023-07-29T06:42:48;17.60;99.90
37938;DHT22;23763;48.130;11.602;2023-07-29T06:45:14;17.60;99.90
37938;DHT22;23763;48.130;11.602;2023-07-29T06:47:41;17.70;99.90
37938;DHT22;23763;48.130;11.602;2023-07-29T06:50:06;17.80;99.90
37938;DHT22;23763;48.130;11.602;2023-07-29T06:52:32;17.80;99.90
37938;DHT22;23763;48.130;11.602;2023-07-29T06:54:58;17.80;99.90
37938;DHT22;23763;48.130;11.602;2023-07-29T06:57:23;17.80;99.90
37938;DHT22;23763;48.130;11.602;2023-07-29T06:59:49;17.80;99.90
37938;DHT22;23763;48.130;11.602;2023-07-29T07:02:15;17.90;99.90
37938;DHT22;23763;48.130;11.602;2023-07-29T07:04:40;17.80;99.90
37938;DHT22;23763;48.130;11.602;2023-07-29T07:07:06;17.70;99.90
37938;DHT22;23763;48.130;11.602;2023-07-29T07:09:32;17.60;99.90
37938;DHT22;23763;48.130;11.602;2023-07-29T07:11:57;17.60;99.90
37938;DHT22;23763;48.130;11.602;2023-07-29T07:14:23;17.50;99.90
37938;DHT22;23763;48.130;11.602;2023-07-29T07:16:48;17.50;99.90
37938;DHT22;23763;48.130;11.602;2023-07-29T07:19:14;17.50;99.90
37938;DHT22;23763;48.130;11.602;2023-07-29T07:21:39;17.60;99.90
37938;DHT22;23763;48.130;11.602;2023-07-29T07:24:05;17.60;99.90
37938;DHT22;23763;48.130;11.602;2023-07-29T07:26:31;17.60;99.90
37938;DHT22;23763;48.130;11.602;2023-07-29T07:28:56;17.70;99.90
37938;DHT22;23763;48.130;11.602;2023-07-29T07:31:22;17.80;99.90
37938;DHT22;23763;48.130;11.602;2023-07-29T07:33:48;17.90;99.90
37938;DHT22;23763;48.130;11.602;2023-07-29T07:36:13;17.90;99.90
37938;DHT22;23763;48.130;11.602;2023-07-29T07:38:39;18.00;99.90
37938;DHT22;23763;48.130;11.602;2023-07-29T07:41:04;18.10;99.90
37938;DHT22;23763;48.130;11.602;2023-07-29T07:43:30;18.10;99.90
37938;DHT22;23763;48.130;11.602;2023-07-29T07:46:00;18.10;99.90
37938;DHT22;23763;48.130;11.602;2023-07-29T07:48:26;18.10;99.90
37938;DHT22;23763;48.130;11.602;2023-07-29T07:50:52;18.20;99.90
37938;DHT22;23763;48.130;11.602;2023-07-29T07:53:18;18.40;99.90
37938;DHT22;23763;48.130;11.602;2023-07-29T07:55:45;18.60;99.90
37938;DHT22;23763;48.130;11.602;2023-07-29T07:58:11;19.00;99.90
37938;DHT22;23763;48.130;11.602;2023-07-29T08:00:36;19.10;99.90
37938;DHT22;23763;48.130;11.602;2023-07-29T08:03:02;19.20;99.90
37938;DHT22;23763;48.130;11.602;2023-07-29T08:05:27;19.20;99.90
37938;DHT22;23763;48.130;11.602;2023-07-29T08:07:53;19.20;99.90
37938;DHT22;23763;48.130;11.602;2023-07-29T08:10:19;19.20;99.90
37938;DHT22;23763;48.130;11.602;2023-07-29T08:12:44;19.20;99.90
37938;DHT22;23763;48.130;11.602;2023-07-29T08:15:10;19.20;99.90
37938;DHT22;23763;48.130;11.602;2023-07-29T08:17:35;19.40;99.90
37938;DHT22;23763;48.130;11.602;2023-07-29T08:20:01;19.40;99.90
37938;DHT22;23763;48.130;11.602;2023-07-29T08:22:27;19.50;99.90
37938;DHT22;23763;48.130;11.602;2023-07-29T08:24:52;19.80;99.90
37938;DHT22;23763;48.130;11.602;2023-07-29T08:27:18;20.00;99.90
37938;DHT22;23763;48.130;11.602;2023-07-29T08:29:43;20.20;99.90
37938;DHT22;23763;48.130;11.602;2023-07-29T08:32:09;20.30;99.90
37938;DHT22;23763;48.130;11.602;2023-07-29T08:34:34;20.40;99.90
37938;DHT22;23763;48.130;11.602;2023-07-29T08:37:00;20.70;99.90
37938;DHT22;23763;48.130;11.602;2023-07-29T08:39:25;20.90;99.90
37938;DHT22;23763;48.130;11.602;2023-07-29T08:44:22;21.00;99.90
37938;DHT22;23763;48.130;11.602;2023-07-29T08:46:51;21.10;99.90
37938;DHT22;23763;48.130;11.602;2023-07-29T08:49:18;21.20;99.90
37938;DHT22;23763;48.130;11.602;2023-07-29T08:51:49;20.90;99.90
37938;DHT22;23763;48.130;11.602;2023-07-29T08:54:15;20.80;99.90
37938;DHT22;23763;48.130;11.602;2023-07-29T08:56:42;20.80;99.90
37938;DHT22;23763;48.130;11.602;2023-07-29T08:59:11;20.90;99.90
37938;DHT22;23763;48.130;11.602;2023-07-29T09:01:38;20.90;99.90
37938;DHT22;23763;48.130;11.602;2023-07-29T09:04:04;21.00;99.90
37938;DHT22;23763;48.130;11.602;2023-07-29T09:06:31;21.10;99.90
37938;DHT22;23763;48.130;11.602;2023-07-29T09:08:57;21.10;99.90
37938;DHT22;23763;48.130;11.602;2023-07-29T09:11:23;21.40;99.90
37938;DHT22;23763;48.130;11.602;2023-07-29T09:13:49;21.60;99.90
37938;DHT22;23763;48.130;11.602;2023-07-29T09:16:15;22.00;99.90
37938;DHT22;23763;48.130;11.602;2023-07-29T09:18:40;22.20;99.90
37938;DHT22;23763;48.130;11.602;2023-07-29T09:21:06;22.60;99.90
37938;DHT22;23763;48.130;11.602;2023-07-29T09:23:42;23.20;99.90
37938;DHT22;23763;48.130;11.602;2023-07-29T09:26:08;23.60;99.90
37938;DHT22;23763;48.130;11.602;2023-07-29T09:28:35;24.00;99.90
37938;DHT22;23763;48.130;11.602;2023-07-29T09:31:01;24.00;99.90
37938;DHT22;23763;48.130;11.602;2023-07-29T09:33:34;24.20;99.90
37938;DHT22;23763;48.130;11.602;2023-07-29T09:36:11;24.40;99.90
37938;DHT22;23763;48.130;11.602;2023-07-29T09:38:38;24.60;99.90
37938;DHT22;23763;48.130;11.602;2023-07-29T09:41:04;24.80;99.90
37938;DHT22;23763;48.130;11.602;2023-07-29T09:43:30;25.30;99.90
37938;DHT22;23763;48.130;11.602;2023-07-29T09:46:03;25.60;99.90
37938;DHT22;23763;48.130;11.602;2023-07-29T09:48:34;25.90;99.90
37938;DHT22;23763;48.130;11.602;2023-07-29T09:51:01;26.00;99.90
37938;DHT22;23763;48.130;11.602;2023-07-29T09:53:42;26.10;99.90
37938;DHT22;23763;48.130;11.602;2023-07-29T09:56:08;26.40;99.90
37938;DHT22;23763;48.130;11.602;2023-07-29T09:58:34;26.10;99.90
37938;DHT22;23763;48.130;11.602;2023-07-29T10:01:01;26.30;99.90
37938;DHT22;23763;48.130;11.602;2023-07-29T10:03:27;26.80;99.90
37938;DHT22;23763;48.130;11.602;2023-07-29T10:05:54;26.50;99.90
37938;DHT22;23763;48.130;11.602;2023-07-29T10:08:20;26.40;99.90
37938;DHT22;23763;48.130;11.602;2023-07-29T10:10:50;26.40;99.90
37938;DHT22;23763;48.130;11.602;2023-07-29T10:13:16;26.40;99.90
37938;DHT22;23763;48.130;11.602;2023-07-29T10:15:42;26.10;99.90
37938;DHT22;23763;48.130;11.602;2023-07-29T10:18:09;26.10;99.90
37938;DHT22;23763;48.130;11.602;2023-07-29T10:20:35;26.30;99.90
37938;DHT22;23763;48.130;11.602;2023-07-29T10:23:02;26.50;99.90
37938;DHT22;23763;48.130;11.602;2023-07-29T10:25:38;26.60;99.90
37938;DHT22;23763;48.130;11.602;2023-07-29T10:28:06;26.70;99.90
37938;DHT22;23763;48.130;11.602;2023-07-29T10:30:32;27.00;99.90
37938;DHT22;23763;48.130;11.602;2023-07-29T10:33:02;27.00;99.90
37938;DHT22;23763;48.130;11.602;2023-07-29T10:35:29;26.90;99.90
37938;DHT22;23763;48.130;11.602;2023-07-29T10:37:56;26.80;99.90
37938;DHT22;23763;48.130;11.602;2023-07-29T10:40:22;26.60;99.90
37938;DHT22;23763;48.130;11.602;2023-07-29T10:43:02;26.50;99.90
37938;DHT22;23763;48.130;11.602;2023-07-29T10:45:36;26.40;99.90
37938;DHT22;23763;48.130;11.602;2023-07-29T10:48:06;26.30;99.90
37938;DHT22;23763;48.130;11.602;2023-07-29T10:50:34;26.30;99.90
37938;DHT22;23763;48.130;11.602;2023-07-29T10:52:59;26.20;99.90
37938;DHT22;23763;48.130;11.602;2023-07-29T10:55:27;26.30;99.90
37938;DHT22;23763;48.130;11.602;2023-07-29T10:58:05;26.60;99.90
37938;DHT22;23763;48.130;11.602;2023-07-29T11:00:31;26.50;99.90
37938;DHT22;23763;48.130;11.602;2023-07-29T11:03:03;26.60;99.90
37938;DHT22;23763;48.130;11.602;2023-07-29T11:05:49;26.60;99.90
37938;DHT22;23763;48.130;11.602;2023-07-29T11:08:21;26.80;99.90
37938;DHT22;23763;48.130;11.602;2023-07-29T11:10:58;27.10;99.90
37938;DHT22;23763;48.130;11.602;2023-07-29T11:13:28;27.30;99.90
37938;DHT22;23763;48.130;11.602;2023-07-29T11:15:55;27.10;99.90
37938;DHT22;23763;48.130;11.602;2023-07-29T11:18:21;27.00;99.90
37938;DHT22;23763;48.130;11.602;2023-07-29T11:20:47;27.00;99.90
37938;DHT22;23763;48.130;11.602;2023-07-29T11:23:14;26.60;99.90
37938;DHT22;23763;48.130;11.602;2023-07-29T11:25:40;25.90;99.90
37938;DHT22;23763;48.130;11.602;2023-07-29T11:28:06;25.40;99.90
37938;DHT22;23763;48.130;11.602;2023-07-29T11:30:31;25.00;99.90
37938;DHT22;23763;48.130;11.602;2023-07-29T11:32:59;24.50;99.90
37938;DHT22;23763;48.130;11.602;2023-07-29T11:35:25;24.50;99.90
37938;DHT22;23763;48.130;11.602;2023-07-29T11:37:53;24.40;99.90
37938;DHT22;23763;48.130;11.602;2023-07-29T11:40:21;24.70;99.90
37938;DHT22;23763;48.130;11.602;2023-07-29T11:42:47;24.70;99.90
37938;DHT22;23763;48.130;11.602;2023-07-29T11:45:16;24.50;99.90
37938;DHT22;23763;48.130;11.602;2023-07-29T11:47:41;24.60;99.90
37938;DHT22;23763;48.130;11.602;2023-07-29T11:50:09;24.50;99.90
37938;DHT22;23763;48.130;11.602;2023-07-29T11:52:36;24.60;99.90
37938;DHT22;23763;48.130;11.602;2023-07-29T11:55:03;24.70;99.90
37938;DHT22;23763;48.130;11.602;2023-07-29T11:57:36;24.70;99.90
37938;DHT22;23763;48.130;11.602;2023-07-29T12:00:04;24.80;99.90
37938;DHT22;23763;48.130;11.602;2023-07-29T12:02:32;24.90;99.90
37938;DHT22;23763;48.130;11.602;2023-07-29T12:04:58;25.00;99.90
37938;DHT22;23763;48.130;11.602;2023-07-29T12:07:24;25.00;99.90
37938;DHT22;23763;48.130;11.602;2023-07-29T12:09:50;25.00;99.90
37938;DHT22;23763;48.130;11.602;2023-07-29T12:12:17;25.10;99.90
37938;DHT22;23763;48.130;11.602;2023-07-29T12:14:46;25.20;99.90
37938;DHT22;23763;48.130;11.602;2023-07-29T12:17:14;25.30;99.90
37938;DHT22;23763;48.130;11.602;2023-07-29T12:19:41;25.40;99.90
37938;DHT22;23763;48.130;11.602;2023-07-29T12:22:08;25.40;99.90
37938;DHT22;23763;48.130;11.602;2023-07-29T12:24:39;25.40;99.90
37938;DHT22;23763;48.130;11.602;2023-07-29T12:27:11;25.50;99.90
37938;DHT22;23763;48.130;11.602;2023-07-29T12:29:44;25.60;99.90
37938;DHT22;23763;48.130;11.602;2023-07-29T12:32:11;25.80;99.90
37938;DHT22;23763;48.130;11.602;2023-07-29T12:34:38;26.10;99.90
37938;DHT22;23763;48.130;11.602;2023-07-29T12:37:05;26.30;99.90
37938;DHT22;23763;48.130;11.602;2023-07-29T12:39:40;26.50;99.90
37938;DHT22;23763;48.130;11.602;2023-07-29T12:42:07;26.50;99.90
37938;DHT22;23763;48.130;11.602;2023-07-29T12:44:34;26.40;99.90
37938;DHT22;23763;48.130;11.602;2023-07-29T12:47:05;26.40;99.90
37938;DHT22;23763;48.130;11.602;2023-07-29T12:49:31;26.40;99.90
37938;DHT22;23763;48.130;11.602;2023-07-29T12:51:57;26.20;99.90
37938;DHT22;23763;48.130;11.602;2023-07-29T12:54:23;25.90;99.90
37938;DHT22;23763;48.130;11.602;2023-07-29T12:56:49;25.70;99.90
37938;DHT22;23763;48.130;11.602;2023-07-29T12:59:15;25.40;99.90
37938;DHT22;23763;48.130;11.602;2023-07-29T13:01:40;24.80;99.90
37938;DHT22;23763;48.130;11.602;2023-07-29T13:04:09;24.00;99.90
37938;DHT22;23763;48.130;11.602;2023-07-29T13:06:34;23.20;99.90
37938;DHT22;23763;48.130;11.602;2023-07-29T13:09:00;22.80;99.90
37938;DHT22;23763;48.130;11.602;2023-07-29T13:11:25;22.40;99.90
37938;DHT22;23763;48.130;11.602;2023-07-29T13:13:54;22.20;99.90
37938;DHT22;23763;48.130;11.602;2023-07-29T13:16:19;21.90;99.90
37938;DHT22;23763;48.130;11.602;2023-07-29T13:18:45;21.70;99.90
37938;DHT22;23763;48.130;11.602;2023-07-29T13:21:10;21.60;99.90
37938;DHT22;23763;48.130;11.602;2023-07-29T13:23:36;21.50;99.90
37938;DHT22;23763;48.130;11.602;2023-07-29T13:26:02;21.30;99.90
37938;DHT22;23763;48.130;11.602;2023-07-29T13:28:28;21.00;99.90
37938;DHT22;23763;48.130;11.602;2023-07-29T13:30:54;20.30;99.90
37938;DHT22;23763;48.130;11.602;2023-07-29T13:33:20;20.10;99.90
37938;DHT22;23763;48.130;11.602;2023-07-29T13:35:48;20.00;99.90
37938;DHT22;23763;48.130;11.602;2023-07-29T13:38:14;20.00;99.90
37938;DHT22;23763;48.130;11.602;2023-07-29T13:40:40;20.20;99.90
37938;DHT22;23763;48.130;11.602;2023-07-29T13:43:05;20.30;99.90
37938;DHT22;23763;48.130;11.602;2023-07-29T13:45:31;20.60;99.90
37938;DHT22;23763;48.130;11.602;2023-07-29T13:47:57;20.70;99.90
37938;DHT22;23763;48.130;11.602;2023-07-29T13:50:22;20.80;99.90
37938;DHT22;23763;48.130;11.602;2023-07-29T13:52:48;20.90;99.90
37938;DHT22;23763;48.130;11.602;2023-07-29T13:55:14;21.00;99.90
37938;DHT22;23763;48.130;11.602;2023-07-29T13:57:39;21.00;99.90
37938;DHT22;23763;48.130;11.602;2023-07-29T14:00:06;21.30;99.90
37938;DHT22;23763;48.130;11.602;2023-07-29T14:02:32;21.50;99.90
37938;DHT22;23763;48.130;11.602;2023-07-29T14:04:58;21.70;99.90
37938;DHT22;23763;48.130;11.602;2023-07-29T14:07:24;21.80;99.90
37938;DHT22;23763;48.130;11.602;2023-07-29T14:09:49;21.70;99.90
37938;DHT22;23763;48.130;11.602;2023-07-29T14:12:15;21.70;99.90
37938;DHT22;23763;48.130;11.602;2023-07-29T14:14:43;21.60;99.90
37938;DHT22;23763;48.130;11.602;2023-07-29T14:17:09;21.50;99.90
37938;DHT22;23763;48.130;11.602;2023-07-29T14:19:35;21.40;99.90
37938;DHT22;23763;48.130;11.602;2023-07-29T14:22:01;21.40;99.90
37938;DHT22;23763;48.130;11.602;2023-07-29T14:24:27;21.20;99.90
37938;DHT22;23763;48.130;11.602;2023-07-29T14:26:52;21.20;99.90
37938;DHT22;23763;48.130;11.602;2023-07-29T14:29:18;21.10;99.90
37938;DHT22;23763;48.130;11.602;2023-07-29T14:31:43;21.20;99.90
37938;DHT22;23763;48.130;11.602;2023-07-29T14:34:09;21.30;99.90
37938;DHT22;23763;48.130;11.602;2023-07-29T14:36:36;21.30;99.90
37938;DHT22;23763;48.130;11.602;2023-07-29T14:39:02;21.40;99.90
37938;DHT22;23763;48.130;11.602;2023-07-29T14:41:31;21.20;99.90
37938;DHT22;23763;48.130;11.602;2023-07-29T14:43:57;21.10;99.90
37938;DHT22;23763;48.130;11.602;2023-07-29T14:46:23;21.10;99.90
37938;DHT22;23763;48.130;11.602;2023-07-29T14:48:48;21.00;99.90
37938;DHT22;23763;48.130;11.602;2023-07-29T14:51:14;20.90;99.90
37938;DHT22;23763;48.130;11.602;2023-07-29T14:53:40;20.80;99.90
37938;DHT22;23763;48.130;11.602;2023-07-29T14:56:06;20.80;99.90
37938;DHT22;23763;48.130;11.602;2023-07-29T14:58:31;20.60;99.90
37938;DHT22;23763;48.130;11.602;2023-07-29T15:00:57;20.60;99.90
37938;DHT22;23763;48.130;11.602;2023-07-29T15:03:23;20.50;99.90
37938;DHT22;23763;48.130;11.602;2023-07-29T15:05:49;20.40;99.90
37938;DHT22;23763;48.130;11.602;2023-07-29T15:08:15;20.50;99.90
37938;DHT22;23763;48.130;11.602;2023-07-29T15:10:40;20.40;99.90
37938;DHT22;23763;48.130;11.602;2023-07-29T15:13:06;20.30;99.90
37938;DHT22;23763;48.130;11.602;2023-07-29T15:15:32;20.30;99.90
37938;DHT22;23763;48.130;11.602;2023-07-29T15:18:01;20.40;99.90
37938;DHT22;23763;48.130;11.602;2023-07-29T15:20:27;20.40;99.90
37938;DHT22;23763;48.130;11.602;2023-07-29T15:22:52;20.50;99.90